KCAE/CAE METAR and TAF weather

Enter ICAO airport designator
Station Type Date Time Source
KCAE METAR 2022/09/26 07:56 UTC NOAA

KCAE 260756Z 00000KT 10SM CLR 20/17 A2985 RMK AO2 SLP106 T02000172


Station Type Date Time Source
KCAE Decoded METAR 2022/09/26 07:56 UTC NOAA

COLUMBIA METROPOLITAN AIRPORT , SC, United States (KCAE) 33-57N 081-07W 73M
Sep 26, 2022 - 03:56 AM EDT / 2022.09.26 0756 UTC
Wind: Calm:0
Visibility: 10 mile(s):0
Sky conditions: clear
Temperature: 68.0 F (20.0 C)
Dew Point: 63.0 F (17.2 C)
Relative Humidity: 83%
Pressure (altimeter): 29.85 in. Hg (1010 hPa)
ob: KCAE 260756Z 00000KT 10SM CLR 20/17 A2985 RMK AO2 SLP106 T02000172
cycle: 8

Station Type Date Time Source
KCAE TAF 2022/09/26 06:22 UTC NOAA

TAF KCAE 260520Z 2606/2706 24003KT P6SM FEW060 SCT250
FM261400 25008KT P6SM FEW060
FM261700 28010G18KT P6SM FEW060
FM262300 31005KT P6SM SKC

Example: see airport list